createdAt,value
2019-05-19T00:02:26.602Z,11.90
2019-05-19T00:04:55.023Z,11.90
2019-05-19T00:07:23.495Z,11.80
2019-05-19T00:09:51.973Z,11.70
2019-05-19T00:12:20.443Z,11.80
2019-05-19T00:14:48.906Z,11.70
2019-05-19T00:17:17.349Z,11.70
2019-05-19T00:19:45.785Z,11.70
2019-05-19T00:22:14.249Z,11.60
2019-05-19T00:24:42.692Z,11.60
2019-05-19T00:27:11.154Z,11.60
2019-05-19T00:29:39.592Z,11.60
2019-05-19T00:32:08.059Z,11.50
2019-05-19T00:34:36.519Z,11.60
2019-05-19T00:37:04.972Z,11.70
2019-05-19T00:39:33.489Z,11.70
2019-05-19T00:42:01.962Z,11.60
2019-05-19T00:44:30.426Z,11.60
2019-05-19T00:46:59.616Z,11.60
2019-05-19T00:49:40.636Z,11.50
2019-05-19T00:51:58.482Z,11.40
2019-05-19T00:54:26.920Z,11.40
2019-05-19T00:56:55.908Z,11.40
2019-05-19T00:59:25.290Z,11.30
2019-05-19T01:01:53.730Z,11.30
2019-05-19T01:04:22.195Z,11.20
2019-05-19T01:06:50.669Z,11.20
2019-05-19T01:09:19.127Z,11.20
2019-05-19T01:11:47.615Z,11.10
2019-05-19T01:14:16.146Z,11.10
2019-05-19T01:16:44.579Z,11.20
2019-05-19T01:19:13.083Z,11.10
2019-05-19T01:21:42.411Z,11.10
2019-05-19T01:24:10.889Z,11.00
2019-05-19T01:26:39.347Z,11.10
2019-05-19T01:29:07.786Z,11.10
2019-05-19T01:31:36.248Z,11.10
2019-05-19T01:34:04.700Z,11.10
2019-05-19T01:36:33.162Z,11.10
2019-05-19T01:39:01.603Z,11.00
2019-05-19T01:41:30.090Z,11.00
2019-05-19T01:43:58.598Z,11.10
2019-05-19T01:46:27.062Z,11.10
2019-05-19T01:48:55.516Z,11.20
2019-05-19T01:51:23.977Z,11.10
2019-05-19T01:53:52.395Z,11.10
2019-05-19T01:56:20.867Z,11.00
2019-05-19T01:58:49.303Z,11.00
2019-05-19T02:01:17.780Z,11.10
2019-05-19T02:03:46.195Z,11.20
2019-05-19T02:06:14.670Z,11.30
2019-05-19T02:08:43.091Z,11.20
2019-05-19T02:11:11.563Z,11.20
2019-05-19T02:13:40.001Z,11.20
2019-05-19T02:16:08.471Z,11.20
2019-05-19T02:18:36.910Z,11.20
2019-05-19T02:21:05.591Z,11.20
2019-05-19T02:23:34.038Z,11.20
2019-05-19T02:26:02.497Z,11.20
2019-05-19T02:28:30.946Z,11.10
2019-05-19T02:30:59.473Z,11.20
2019-05-19T02:33:28.519Z,11.10
2019-05-19T02:35:56.956Z,11.10
2019-05-19T02:38:25.428Z,11.10
2019-05-19T02:40:56.321Z,11.10
2019-05-19T02:43:25.926Z,11.10
2019-05-19T02:45:57.416Z,11.10
2019-05-19T02:48:27.941Z,11.00
2019-05-19T02:50:58.436Z,11.00
2019-05-19T02:53:27.244Z,11.00
2019-05-19T02:55:56.015Z,11.00
2019-05-19T02:58:24.922Z,11.00
2019-05-19T03:00:53.383Z,11.10
2019-05-19T03:03:21.811Z,11.10
2019-05-19T03:05:50.328Z,11.20
2019-05-19T03:08:18.765Z,11.20
2019-05-19T03:10:47.216Z,11.10
2019-05-19T03:13:15.664Z,11.10
2019-05-19T03:15:44.408Z,11.10
2019-05-19T03:18:12.868Z,11.10
2019-05-19T03:20:41.303Z,11.20
2019-05-19T03:23:09.767Z,11.20
2019-05-19T03:25:38.207Z,11.20
2019-05-19T03:28:06.655Z,11.30
2019-05-19T03:30:52.878Z,11.30
2019-05-19T03:33:22.993Z,11.20
2019-05-19T03:35:51.463Z,11.30
2019-05-19T03:38:19.880Z,11.30
2019-05-19T03:40:48.429Z,11.30
2019-05-19T03:43:16.858Z,11.30
2019-05-19T03:45:45.298Z,11.30
2019-05-19T03:48:13.748Z,11.30
2019-05-19T03:50:42.293Z,11.30
2019-05-19T03:53:10.838Z,11.30
2019-05-19T03:55:39.303Z,11.30
2019-05-19T03:58:07.741Z,11.30
2019-05-19T04:00:36.210Z,11.20
2019-05-19T04:03:04.646Z,11.20
2019-05-19T04:05:33.122Z,11.20
2019-05-19T04:08:01.640Z,11.20
2019-05-19T04:10:30.096Z,11.20
2019-05-19T04:12:58.734Z,11.20
2019-05-19T04:15:27.271Z,11.30
2019-05-19T04:17:55.744Z,11.30
2019-05-19T04:20:24.208Z,11.40
2019-05-19T04:22:52.651Z,11.50
2019-05-19T04:25:21.182Z,11.60
2019-05-19T04:27:49.672Z,11.80
2019-05-19T04:30:18.167Z,11.80
2019-05-19T04:32:46.621Z,11.90
2019-05-19T04:35:15.080Z,12.10
2019-05-19T04:37:43.544Z,12.60
2019-05-19T04:40:12.342Z,12.90
2019-05-19T04:42:40.815Z,13.00
2019-05-19T04:45:09.487Z,13.10
2019-05-19T04:47:37.941Z,13.30
2019-05-19T04:50:07.999Z,13.40
2019-05-19T04:52:36.472Z,13.10
2019-05-19T04:55:05.350Z,13.00
2019-05-19T04:57:34.646Z,12.90
2019-05-19T05:00:03.380Z,12.80
2019-05-19T05:02:31.806Z,12.80
2019-05-19T05:05:00.277Z,13.00
2019-05-19T05:07:28.884Z,13.20
2019-05-19T05:09:57.411Z,13.40
2019-05-19T05:12:28.390Z,14.10
2019-05-19T05:14:59.017Z,14.90
2019-05-19T05:17:27.442Z,16.00
2019-05-19T05:19:56.779Z,16.60
2019-05-19T05:22:25.305Z,17.10
2019-05-19T05:24:53.767Z,17.30
2019-05-19T05:27:22.282Z,17.90
2019-05-19T05:29:50.746Z,18.00
2019-05-19T05:32:19.176Z,17.40
2019-05-19T05:34:47.613Z,17.80
2019-05-19T05:37:16.051Z,18.20
2019-05-19T05:39:44.480Z,17.80
2019-05-19T05:42:12.919Z,17.60
2019-05-19T05:44:41.374Z,17.70
2019-05-19T05:47:09.833Z,17.00
2019-05-19T05:49:38.277Z,16.50
2019-05-19T05:52:06.744Z,16.30
2019-05-19T05:54:35.232Z,16.00
2019-05-19T05:57:03.703Z,16.70
2019-05-19T05:59:32.162Z,16.60
2019-05-19T06:02:00.607Z,16.60
2019-05-19T06:04:29.046Z,16.80
2019-05-19T06:06:57.517Z,16.90
2019-05-19T06:09:25.965Z,17.10
2019-05-19T06:11:54.410Z,16.90
2019-05-19T06:14:22.882Z,16.80
2019-05-19T06:16:51.301Z,16.80
2019-05-19T06:19:19.764Z,16.90
2019-05-19T06:21:48.204Z,17.00
2019-05-19T06:24:16.684Z,17.10
2019-05-19T06:26:45.214Z,17.30
2019-05-19T06:29:13.685Z,17.60
2019-05-19T06:31:42.155Z,18.30
2019-05-19T06:34:10.595Z,18.70
2019-05-19T06:36:39.029Z,19.20
2019-05-19T06:39:07.572Z,19.40
2019-05-19T06:41:36.099Z,19.10
2019-05-19T06:44:04.608Z,19.10
2019-05-19T06:46:33.045Z,19.40
2019-05-19T06:49:01.537Z,19.60
2019-05-19T06:51:30.028Z,20.20
2019-05-19T06:53:58.980Z,20.60
2019-05-19T06:56:27.446Z,20.70
2019-05-19T06:58:55.954Z,21.50
2019-05-19T07:01:24.394Z,22.50
2019-05-19T07:03:52.841Z,21.70
2019-05-19T07:06:21.358Z,21.60
2019-05-19T07:08:49.824Z,21.10
2019-05-19T07:11:18.278Z,22.00
2019-05-19T07:13:46.714Z,22.90
2019-05-19T07:16:15.176Z,22.90
2019-05-19T07:18:43.619Z,23.30
2019-05-19T07:21:12.139Z,22.70
2019-05-19T07:23:40.607Z,24.00
2019-05-19T07:26:11.679Z,24.20
2019-05-19T07:28:40.148Z,24.00
2019-05-19T07:31:08.621Z,23.70
2019-05-19T07:33:37.127Z,23.40
2019-05-19T07:36:05.562Z,23.00
2019-05-19T07:38:34.318Z,22.70
2019-05-19T07:41:02.763Z,22.50
2019-05-19T07:43:31.542Z,22.40
2019-05-19T07:45:59.983Z,22.50
2019-05-19T07:48:29.910Z,22.50
2019-05-19T07:50:59.134Z,22.40
2019-05-19T07:53:27.565Z,21.70
2019-05-19T07:55:56.008Z,21.70
2019-05-19T07:58:24.457Z,21.70
2019-05-19T08:00:52.904Z,21.40
2019-05-19T08:03:21.336Z,21.50
2019-05-19T08:05:49.861Z,21.10
2019-05-19T08:08:18.327Z,20.90
2019-05-19T08:10:46.798Z,21.30
2019-05-19T08:13:15.243Z,21.50
2019-05-19T08:15:43.685Z,21.70
2019-05-19T08:18:12.143Z,21.80
2019-05-19T08:20:40.595Z,21.70
2019-05-19T08:23:09.055Z,21.60
2019-05-19T08:25:37.521Z,21.20
2019-05-19T08:28:08.860Z,21.20
2019-05-19T08:30:36.154Z,21.50
2019-05-19T08:33:04.608Z,21.80
2019-05-19T08:35:33.128Z,22.10
2019-05-19T08:38:01.778Z,21.90
2019-05-19T08:40:30.278Z,21.90
2019-05-19T08:42:59.184Z,22.50
2019-05-19T08:45:27.668Z,23.00
2019-05-19T08:47:56.171Z,22.80
2019-05-19T08:50:24.590Z,23.20
2019-05-19T08:52:53.031Z,23.10
2019-05-19T08:55:21.487Z,23.70
2019-05-19T08:57:49.954Z,23.40
2019-05-19T09:00:18.982Z,23.20
2019-05-19T09:02:47.446Z,23.10
2019-05-19T09:05:15.993Z,23.20
2019-05-19T09:07:44.425Z,23.50
2019-05-19T09:10:13.118Z,23.90
2019-05-19T09:12:41.540Z,24.60
2019-05-19T09:15:10.154Z,24.30
2019-05-19T09:17:38.620Z,24.20
2019-05-19T09:20:07.195Z,24.40
2019-05-19T09:22:35.640Z,24.50
2019-05-19T09:25:08.222Z,24.60
2019-05-19T09:27:36.638Z,25.00
2019-05-19T09:30:08.203Z,24.80
2019-05-19T09:32:36.643Z,24.80
2019-05-19T09:35:09.012Z,24.40
2019-05-19T09:37:37.425Z,24.10
2019-05-19T09:40:07.784Z,23.80
2019-05-19T09:42:36.212Z,24.10
2019-05-19T09:45:09.822Z,24.30
2019-05-19T09:47:38.404Z,24.00
2019-05-19T09:50:07.677Z,24.30
2019-05-19T09:52:36.254Z,25.20
2019-05-19T09:55:05.533Z,25.50
2019-05-19T09:57:34.207Z,25.30
2019-05-19T10:00:02.918Z,24.60
2019-05-19T10:02:31.364Z,24.70
2019-05-19T10:04:59.798Z,25.20
2019-05-19T10:07:29.177Z,25.50
2019-05-19T10:10:01.792Z,25.20
2019-05-19T10:12:30.491Z,24.90
2019-05-19T10:14:59.378Z,25.00
2019-05-19T10:17:27.882Z,25.80
2019-05-19T10:19:56.591Z,26.70
2019-05-19T10:22:25.078Z,28.40
2019-05-19T10:25:10.409Z,29.50
2019-05-19T10:27:23.685Z,30.30
2019-05-19T10:29:52.153Z,30.80
2019-05-19T10:32:20.662Z,29.90
2019-05-19T10:34:49.131Z,30.10
2019-05-19T10:37:17.575Z,30.10
2019-05-19T10:39:46.024Z,31.00
2019-05-19T10:42:14.453Z,31.10
2019-05-19T10:44:42.913Z,30.70
2019-05-19T10:47:11.394Z,30.40
2019-05-19T10:49:42.906Z,31.20
2019-05-19T10:52:10.067Z,32.20
2019-05-19T10:54:38.615Z,31.00
2019-05-19T10:57:07.126Z,29.30
2019-05-19T10:59:35.592Z,30.30
2019-05-19T11:02:04.118Z,29.50
2019-05-19T11:04:32.585Z,29.40
2019-05-19T11:07:01.020Z,28.30
2019-05-19T11:09:29.484Z,28.00
2019-05-19T11:11:57.967Z,28.70
2019-05-19T11:14:26.403Z,28.60
2019-05-19T11:16:54.879Z,27.50
2019-05-19T11:19:23.338Z,28.30
2019-05-19T11:21:51.780Z,28.50
2019-05-19T11:24:20.237Z,28.80
2019-05-19T11:26:48.650Z,30.00
2019-05-19T11:29:17.120Z,29.30
2019-05-19T11:31:45.566Z,28.50
2019-05-19T11:34:14.119Z,29.50
2019-05-19T11:36:42.559Z,30.10
2019-05-19T11:39:11.039Z,30.10
2019-05-19T11:41:39.507Z,29.90
2019-05-19T11:44:07.943Z,29.70
2019-05-19T11:46:36.408Z,29.80
2019-05-19T11:49:04.847Z,30.10
2019-05-19T11:51:33.263Z,29.00
2019-05-19T11:54:01.724Z,28.20
2019-05-19T11:56:30.156Z,28.90
2019-05-19T11:58:59.691Z,27.90
2019-05-19T12:01:28.131Z,28.00
2019-05-19T12:03:56.607Z,28.00
2019-05-19T12:06:38.097Z,27.60
2019-05-19T12:08:55.250Z,28.30
2019-05-19T12:11:23.710Z,28.90
2019-05-19T12:13:52.142Z,30.10
2019-05-19T12:16:20.607Z,29.90
2019-05-19T12:18:49.059Z,30.20
2019-05-19T12:21:17.539Z,31.10
2019-05-19T12:23:45.975Z,31.10
2019-05-19T12:26:23.072Z,32.00
2019-05-19T12:28:44.712Z,30.70
2019-05-19T12:31:13.147Z,29.00
2019-05-19T12:33:51.667Z,29.20
2019-05-19T12:36:11.747Z,30.10
2019-05-19T12:38:40.195Z,29.50
2019-05-19T12:41:08.636Z,29.50
2019-05-19T12:43:37.091Z,30.60
2019-05-19T12:46:15.525Z,30.50
2019-05-19T12:48:35.723Z,30.60
2019-05-19T12:51:04.188Z,31.70
2019-05-19T12:53:32.595Z,32.10
2019-05-19T12:56:01.048Z,32.70
2019-05-19T12:58:29.648Z,32.20
2019-05-19T13:00:58.115Z,30.20
2019-05-19T13:03:26.563Z,29.30
2019-05-19T13:05:54.980Z,28.70
2019-05-19T13:08:23.458Z,28.20
2019-05-19T13:10:51.929Z,27.80
2019-05-19T13:13:20.372Z,27.50
2019-05-19T13:15:48.825Z,27.00
2019-05-19T13:18:17.355Z,26.60
2019-05-19T13:20:45.814Z,26.70
2019-05-19T13:23:14.273Z,26.40
2019-05-19T13:25:42.742Z,26.70
2019-05-19T13:28:11.179Z,28.00
2019-05-19T13:30:39.614Z,29.40
2019-05-19T13:33:08.078Z,29.30
2019-05-19T13:35:36.519Z,28.80
2019-05-19T13:38:04.958Z,28.30
2019-05-19T13:40:33.405Z,28.80
2019-05-19T13:43:01.886Z,28.60
2019-05-19T13:45:30.326Z,27.70
2019-05-19T13:47:59.696Z,27.50
2019-05-19T13:50:28.141Z,26.80
2019-05-19T13:52:56.562Z,26.70
2019-05-19T13:55:25.022Z,26.70
2019-05-19T13:57:53.441Z,26.80
2019-05-19T14:00:21.963Z,26.70
2019-05-19T14:02:50.404Z,26.70
2019-05-19T14:05:18.877Z,26.80
2019-05-19T14:07:47.321Z,26.80
2019-05-19T14:10:16.027Z,26.90
2019-05-19T14:12:44.493Z,27.10
2019-05-19T14:15:13.266Z,27.50
2019-05-19T14:17:41.732Z,27.70
2019-05-19T14:20:10.662Z,27.50
2019-05-19T14:22:39.126Z,26.60
2019-05-19T14:25:08.035Z,26.60
2019-05-19T14:27:36.495Z,26.80
2019-05-19T14:30:06.942Z,27.40
2019-05-19T14:32:35.487Z,27.60
2019-05-19T14:35:05.493Z,27.30
2019-05-19T14:37:34.001Z,27.40
2019-05-19T14:40:02.550Z,27.60
2019-05-19T14:42:48.803Z,27.50
2019-05-19T14:45:18.696Z,27.30
2019-05-19T14:47:47.206Z,26.70
2019-05-19T14:50:16.883Z,26.70
2019-05-19T14:52:45.339Z,26.30
2019-05-19T14:55:13.967Z,26.70
2019-05-19T14:57:45.364Z,26.30
2019-05-19T15:00:14.764Z,26.50
2019-05-19T15:02:43.211Z,26.60
2019-05-19T15:05:11.972Z,26.60
2019-05-19T15:07:40.540Z,26.50
2019-05-19T15:10:10.712Z,26.40
2019-05-19T15:12:39.188Z,26.60
2019-05-19T15:15:07.835Z,26.70
2019-05-19T15:17:36.313Z,26.60
2019-05-19T15:20:08.832Z,26.90
2019-05-19T15:22:37.263Z,27.00
2019-05-19T15:25:07.085Z,27.10
2019-05-19T15:27:35.552Z,26.80
2019-05-19T15:30:12.851Z,26.70
2019-05-19T15:32:36.794Z,26.60
2019-05-19T15:35:08.441Z,26.60
2019-05-19T15:37:36.901Z,26.70
2019-05-19T15:40:09.033Z,26.50
2019-05-19T15:42:37.500Z,26.40
2019-05-19T15:45:06.846Z,26.50
2019-05-19T15:47:35.298Z,26.60
2019-05-19T15:50:07.449Z,26.30
2019-05-19T15:52:35.934Z,26.10
2019-05-19T15:55:05.507Z,26.10
2019-05-19T15:57:34.226Z,26.10
2019-05-19T16:00:03.977Z,26.20
2019-05-19T16:02:32.966Z,25.90
2019-05-19T16:05:01.392Z,25.80
2019-05-19T16:07:29.939Z,25.90
2019-05-19T16:09:58.499Z,26.30
2019-05-19T16:12:27.004Z,26.40
2019-05-19T16:14:55.475Z,26.60
2019-05-19T16:17:24.025Z,26.30
2019-05-19T16:19:52.480Z,26.10
2019-05-19T16:22:20.891Z,26.10
2019-05-19T16:24:49.606Z,26.00
2019-05-19T16:27:18.085Z,26.00
2019-05-19T16:29:46.590Z,25.90
2019-05-19T16:32:15.151Z,25.90
2019-05-19T16:34:43.614Z,25.80
2019-05-19T16:37:12.061Z,25.80
2019-05-19T16:39:40.523Z,25.80
2019-05-19T16:42:08.962Z,25.70
2019-05-19T16:44:37.429Z,25.80
2019-05-19T16:47:05.932Z,25.60
2019-05-19T16:49:34.435Z,25.40
2019-05-19T16:52:03.507Z,25.50
2019-05-19T16:54:42.520Z,25.50
2019-05-19T16:57:09.723Z,25.40
2019-05-19T16:59:38.149Z,25.20
2019-05-19T17:02:06.630Z,25.00
2019-05-19T17:04:35.062Z,25.00
2019-05-19T17:07:03.594Z,25.00
2019-05-19T17:09:32.034Z,24.80
2019-05-19T17:12:00.497Z,24.80
2019-05-19T17:14:28.935Z,24.80
2019-05-19T17:16:57.513Z,24.70
2019-05-19T17:19:25.954Z,24.60
2019-05-19T17:21:54.399Z,24.50
2019-05-19T17:24:22.862Z,24.40
2019-05-19T17:26:51.338Z,24.30
2019-05-19T17:29:19.849Z,24.20
2019-05-19T17:31:48.370Z,24.10
2019-05-19T17:34:16.798Z,23.90
2019-05-19T17:36:45.254Z,23.80
2019-05-19T17:39:13.716Z,23.80
2019-05-19T17:41:42.188Z,23.60
2019-05-19T17:44:10.704Z,23.50
2019-05-19T17:46:39.211Z,23.40
2019-05-19T17:49:07.645Z,23.20
2019-05-19T17:51:36.082Z,23.10
2019-05-19T17:54:04.681Z,23.00
2019-05-19T17:56:33.526Z,22.80
2019-05-19T17:59:15.808Z,22.70
2019-05-19T18:01:32.252Z,22.60
2019-05-19T18:04:00.698Z,22.40
2019-05-19T18:06:30.066Z,22.30
2019-05-19T18:08:58.543Z,22.20
2019-05-19T18:11:26.981Z,22.10
2019-05-19T18:13:55.427Z,22.10
2019-05-19T18:16:23.911Z,22.10
2019-05-19T18:18:52.426Z,22.00
2019-05-19T18:21:20.948Z,22.00
2019-05-19T18:23:49.405Z,21.80
2019-05-19T18:26:17.854Z,21.80
2019-05-19T18:28:46.294Z,21.70
2019-05-19T18:31:14.754Z,21.60
2019-05-19T18:33:43.211Z,21.60
2019-05-19T18:36:11.681Z,21.60
2019-05-19T18:38:40.106Z,21.50
2019-05-19T18:41:08.542Z,21.40
2019-05-19T18:43:36.987Z,21.40
2019-05-19T18:46:05.453Z,21.50
2019-05-19T18:48:33.986Z,21.30
2019-05-19T18:51:02.418Z,21.30
2019-05-19T18:53:30.930Z,21.20
2019-05-19T18:56:00.465Z,21.30
2019-05-19T18:58:29.015Z,21.20
2019-05-19T19:00:57.524Z,21.10
2019-05-19T19:03:26.293Z,21.00
2019-05-19T19:05:54.726Z,21.00
2019-05-19T19:08:23.246Z,21.10
2019-05-19T19:10:51.792Z,20.90
2019-05-19T19:13:20.326Z,21.00
2019-05-19T19:15:48.747Z,20.90
2019-05-19T19:18:17.258Z,20.80
2019-05-19T19:20:45.754Z,20.70
2019-05-19T19:23:14.275Z,20.40
2019-05-19T19:25:42.792Z,20.20
2019-05-19T19:28:11.267Z,20.10
2019-05-19T19:30:39.904Z,19.90
2019-05-19T19:33:08.347Z,19.80
2019-05-19T19:35:39.361Z,19.60
2019-05-19T19:38:07.067Z,19.60
2019-05-19T19:40:35.538Z,19.40
2019-05-19T19:43:04.343Z,19.40
2019-05-19T19:45:32.800Z,19.40
2019-05-19T19:48:01.267Z,19.30
2019-05-19T19:50:30.414Z,19.20
2019-05-19T19:52:58.842Z,19.30
2019-05-19T19:55:27.440Z,19.20
2019-05-19T19:57:55.868Z,19.10
2019-05-19T20:00:35.579Z,19.00
2019-05-19T20:03:05.070Z,19.00
2019-05-19T20:05:33.508Z,18.80
2019-05-19T20:08:01.943Z,18.70
2019-05-19T20:10:37.921Z,18.80
2019-05-19T20:13:06.613Z,18.80
2019-05-19T20:15:35.918Z,18.70
2019-05-19T20:18:04.456Z,18.70
2019-05-19T20:20:32.912Z,18.70
2019-05-19T20:23:01.420Z,18.60
2019-05-19T20:25:30.474Z,18.60
2019-05-19T20:27:58.912Z,18.50
2019-05-19T20:30:35.553Z,18.40
2019-05-19T20:32:57.508Z,18.50
2019-05-19T20:35:25.970Z,18.70
2019-05-19T20:37:54.383Z,18.80
2019-05-19T20:40:22.851Z,18.90
2019-05-19T20:42:51.291Z,19.00
2019-05-19T20:45:19.763Z,18.90
2019-05-19T20:47:48.218Z,18.70
2019-05-19T20:50:16.710Z,18.80
2019-05-19T20:52:45.163Z,18.70
2019-05-19T20:55:13.647Z,18.60
2019-05-19T20:57:42.110Z,18.40
2019-05-19T21:00:10.968Z,18.30
2019-05-19T21:02:39.499Z,18.30
2019-05-19T21:05:08.003Z,18.20
2019-05-19T21:07:36.619Z,18.10
2019-05-19T21:10:06.590Z,18.10
2019-05-19T21:12:35.395Z,18.10
2019-05-19T21:15:05.065Z,18.10
2019-05-19T21:17:33.520Z,18.10
2019-05-19T21:20:02.733Z,18.00
2019-05-19T21:22:31.416Z,18.00
2019-05-19T21:25:00.588Z,17.90
2019-05-19T21:27:28.999Z,17.90
2019-05-19T21:29:57.477Z,17.90
2019-05-19T21:32:25.905Z,17.90
2019-05-19T21:34:54.367Z,17.80
2019-05-19T21:37:22.802Z,17.70
2019-05-19T21:39:51.255Z,17.60
2019-05-19T21:42:19.722Z,17.50
2019-05-19T21:44:48.197Z,17.50
2019-05-19T21:47:16.616Z,17.40
2019-05-19T21:49:45.073Z,17.30
2019-05-19T21:52:13.530Z,17.20
2019-05-19T21:54:41.954Z,17.20
2019-05-19T21:57:10.431Z,17.20
2019-05-19T21:59:38.894Z,17.20
2019-05-19T22:02:07.323Z,17.20
2019-05-19T22:04:35.759Z,17.30
2019-05-19T22:07:05.859Z,17.30
2019-05-19T22:09:34.299Z,17.20
2019-05-19T22:12:02.902Z,17.20
2019-05-19T22:14:31.339Z,17.10
2019-05-19T22:17:00.723Z,17.10
2019-05-19T22:19:29.155Z,17.10
2019-05-19T22:21:57.638Z,17.10
2019-05-19T22:24:26.070Z,17.20
2019-05-19T22:26:54.509Z,17.10
2019-05-19T22:29:22.949Z,17.10
2019-05-19T22:31:51.447Z,17.10
2019-05-19T22:34:19.923Z,17.10
2019-05-19T22:36:48.382Z,17.10
2019-05-19T22:39:16.830Z,17.00
2019-05-19T22:41:45.295Z,16.90
2019-05-19T22:44:13.734Z,16.90
2019-05-19T22:46:42.183Z,16.80
2019-05-19T22:49:10.649Z,16.80
2019-05-19T22:51:39.103Z,16.70
2019-05-19T22:54:07.516Z,16.60
2019-05-19T22:56:35.987Z,16.50
2019-05-19T22:59:17.547Z,16.50
2019-05-19T23:01:34.598Z,16.50
2019-05-19T23:04:03.035Z,16.50
2019-05-19T23:06:31.483Z,16.60
2019-05-19T23:09:20.172Z,16.60
2019-05-19T23:11:48.629Z,16.50
2019-05-19T23:14:17.098Z,16.50
2019-05-19T23:16:45.539Z,16.40
2019-05-19T23:19:14.001Z,16.40
2019-05-19T23:21:42.419Z,16.40
2019-05-19T23:24:10.886Z,16.40
2019-05-19T23:26:39.336Z,16.40
2019-05-19T23:29:07.794Z,16.30
2019-05-19T23:31:36.254Z,16.30
2019-05-19T23:34:04.720Z,16.20
2019-05-19T23:36:33.155Z,16.20
2019-05-19T23:39:01.616Z,16.20
2019-05-19T23:41:30.915Z,16.20
2019-05-19T23:43:59.355Z,16.20
2019-05-19T23:46:27.818Z,16.00
2019-05-19T23:48:56.253Z,16.00
2019-05-19T23:51:24.671Z,16.00
2019-05-19T23:53:53.156Z,16.10
2019-05-19T23:56:21.706Z,16.10
2019-05-19T23:58:50.164Z,16.10
